sensor_id;sensor_type;location;lat;lon;timestamp;P1;durP1;ratioP1;P2;durP2;ratioP2
5414;SDS011;2730;51.512;7.504;2023-06-04T00:02:25;3.42;;;2.92;;
5414;SDS011;2730;51.512;7.504;2023-06-04T00:04:51;3.50;;;2.35;;
5414;SDS011;2730;51.512;7.504;2023-06-04T00:07:18;6.18;;;2.75;;
5414;SDS011;2730;51.512;7.504;2023-06-04T00:09:45;4.70;;;2.47;;
5414;SDS011;2730;51.512;7.504;2023-06-04T00:12:12;4.53;;;2.40;;
5414;SDS011;2730;51.512;7.504;2023-06-04T00:14:39;3.60;;;2.30;;
5414;SDS011;2730;51.512;7.504;2023-06-04T00:17:07;5.00;;;3.20;;
5414;SDS011;2730;51.512;7.504;2023-06-04T00:19:37;6.82;;;2.97;;
5414;SDS011;2730;51.512;7.504;2023-06-04T00:22:05;5.15;;;2.65;;
5414;SDS011;2730;51.512;7.504;2023-06-04T00:24:32;4.13;;;2.70;;
5414;SDS011;2730;51.512;7.504;2023-06-04T00:26:59;2.78;;;2.40;;
5414;SDS011;2730;51.512;7.504;2023-06-04T00:29:26;5.35;;;2.40;;
5414;SDS011;2730;51.512;7.504;2023-06-04T00:31:53;4.25;;;3.03;;
5414;SDS011;2730;51.512;7.504;2023-06-04T00:34:19;5.60;;;2.75;;
5414;SDS011;2730;51.512;7.504;2023-06-04T00:36:47;4.78;;;3.35;;
5414;SDS011;2730;51.512;7.504;2023-06-04T00:39:14;5.32;;;2.85;;
5414;SDS011;2730;51.512;7.504;2023-06-04T00:41:41;7.15;;;2.70;;
5414;SDS011;2730;51.512;7.504;2023-06-04T00:44:08;2.97;;;2.50;;
5414;SDS011;2730;51.512;7.504;2023-06-04T00:46:36;7.50;;;3.03;;
5414;SDS011;2730;51.512;7.504;2023-06-04T00:49:04;8.30;;;2.90;;
5414;SDS011;2730;51.512;7.504;2023-06-04T00:51:31;5.57;;;3.05;;
5414;SDS011;2730;51.512;7.504;2023-06-04T00:54:00;4.95;;;2.90;;
5414;SDS011;2730;51.512;7.504;2023-06-04T00:56:34;5.60;;;2.45;;
5414;SDS011;2730;51.512;7.504;2023-06-04T00:59:02;4.47;;;2.50;;
5414;SDS011;2730;51.512;7.504;2023-06-04T01:01:31;3.35;;;2.60;;
5414;SDS011;2730;51.512;7.504;2023-06-04T01:04:08;5.55;;;2.70;;
5414;SDS011;2730;51.512;7.504;2023-06-04T01:06:39;2.75;;;2.40;;
5414;SDS011;2730;51.512;7.504;2023-06-04T01:09:11;4.40;;;2.60;;
5414;SDS011;2730;51.512;7.504;2023-06-04T01:11:39;6.50;;;2.60;;
5414;SDS011;2730;51.512;7.504;2023-06-04T01:14:06;5.63;;;2.83;;
5414;SDS011;2730;51.512;7.504;2023-06-04T01:16:36;3.60;;;2.60;;
5414;SDS011;2730;51.512;7.504;2023-06-04T01:19:11;5.15;;;2.63;;
5414;SDS011;2730;51.512;7.504;2023-06-04T01:21:55;3.40;;;2.28;;
5414;SDS011;2730;51.512;7.504;2023-06-04T01:24:30;5.05;;;2.50;;
5414;SDS011;2730;51.512;7.504;2023-06-04T01:27:01;2.75;;;2.55;;
5414;SDS011;2730;51.512;7.504;2023-06-04T01:29:29;2.72;;;2.47;;
5414;SDS011;2730;51.512;7.504;2023-06-04T01:31:57;7.88;;;2.97;;
5414;SDS011;2730;51.512;7.504;2023-06-04T01:34:25;1.90;;;1.80;;
5414;SDS011;2730;51.512;7.504;2023-06-04T01:36:51;4.65;;;2.50;;
5414;SDS011;2730;51.512;7.504;2023-06-04T01:39:18;4.35;;;2.80;;
5414;SDS011;2730;51.512;7.504;2023-06-04T01:41:46;2.35;;;1.90;;
5414;SDS011;2730;51.512;7.504;2023-06-04T01:44:13;3.40;;;2.60;;
5414;SDS011;2730;51.512;7.504;2023-06-04T01:46:40;2.70;;;2.50;;
5414;SDS011;2730;51.512;7.504;2023-06-04T01:49:07;7.22;;;2.60;;
5414;SDS011;2730;51.512;7.504;2023-06-04T01:51:34;2.92;;;2.67;;
5414;SDS011;2730;51.512;7.504;2023-06-04T01:54:01;3.83;;;2.42;;
5414;SDS011;2730;51.512;7.504;2023-06-04T01:56:28;3.95;;;2.55;;
5414;SDS011;2730;51.512;7.504;2023-06-04T01:58:56;3.25;;;2.15;;
5414;SDS011;2730;51.512;7.504;2023-06-04T02:01:23;2.05;;;1.95;;
5414;SDS011;2730;51.512;7.504;2023-06-04T02:03:50;6.80;;;2.75;;
5414;SDS011;2730;51.512;7.504;2023-06-04T02:06:17;4.85;;;2.40;;
5414;SDS011;2730;51.512;7.504;2023-06-04T02:08:44;3.97;;;1.90;;
5414;SDS011;2730;51.512;7.504;2023-06-04T02:11:11;2.85;;;2.30;;
5414;SDS011;2730;51.512;7.504;2023-06-04T02:13:38;3.60;;;2.28;;
5414;SDS011;2730;51.512;7.504;2023-06-04T02:16:06;3.85;;;2.03;;
5414;SDS011;2730;51.512;7.504;2023-06-04T02:18:33;4.20;;;2.05;;
5414;SDS011;2730;51.512;7.504;2023-06-04T02:20:59;2.20;;;2.00;;
5414;SDS011;2730;51.512;7.504;2023-06-04T02:23:26;3.90;;;2.10;;
5414;SDS011;2730;51.512;7.504;2023-06-04T02:25:53;3.85;;;1.85;;
5414;SDS011;2730;51.512;7.504;2023-06-04T02:28:20;3.33;;;1.92;;
5414;SDS011;2730;51.512;7.504;2023-06-04T02:30:47;4.95;;;2.67;;
5414;SDS011;2730;51.512;7.504;2023-06-04T02:33:15;2.55;;;2.10;;
5414;SDS011;2730;51.512;7.504;2023-06-04T02:35:42;2.35;;;1.98;;
5414;SDS011;2730;51.512;7.504;2023-06-04T02:38:09;2.13;;;1.83;;
5414;SDS011;2730;51.512;7.504;2023-06-04T02:40:35;4.50;;;2.10;;
5414;SDS011;2730;51.512;7.504;2023-06-04T02:43:02;2.60;;;2.40;;
5414;SDS011;2730;51.512;7.504;2023-06-04T02:45:29;4.35;;;2.70;;
5414;SDS011;2730;51.512;7.504;2023-06-04T02:47:56;2.67;;;2.33;;
5414;SDS011;2730;51.512;7.504;2023-06-04T02:50:24;3.03;;;2.40;;
5414;SDS011;2730;51.512;7.504;2023-06-04T02:52:51;2.40;;;2.20;;
5414;SDS011;2730;51.512;7.504;2023-06-04T02:55:18;2.97;;;2.67;;
5414;SDS011;2730;51.512;7.504;2023-06-04T02:57:45;2.20;;;2.00;;
5414;SDS011;2730;51.512;7.504;2023-06-04T03:00:12;3.28;;;2.58;;
5414;SDS011;2730;51.512;7.504;2023-06-04T03:02:41;3.88;;;2.45;;
5414;SDS011;2730;51.512;7.504;2023-06-04T03:05:09;4.00;;;2.45;;
5414;SDS011;2730;51.512;7.504;2023-06-04T03:07:40;4.38;;;2.40;;
5414;SDS011;2730;51.512;7.504;2023-06-04T03:10:10;1.88;;;1.75;;
5414;SDS011;2730;51.512;7.504;2023-06-04T03:12:38;4.85;;;2.45;;
5414;SDS011;2730;51.512;7.504;2023-06-04T03:15:05;4.30;;;2.00;;
5414;SDS011;2730;51.512;7.504;2023-06-04T03:17:34;5.47;;;2.40;;
5414;SDS011;2730;51.512;7.504;2023-06-04T03:20:01;2.85;;;2.13;;
5414;SDS011;2730;51.512;7.504;2023-06-04T03:22:29;2.95;;;2.65;;
5414;SDS011;2730;51.512;7.504;2023-06-04T03:25:00;2.38;;;2.15;;
5414;SDS011;2730;51.512;7.504;2023-06-04T03:27:27;2.75;;;2.53;;
5414;SDS011;2730;51.512;7.504;2023-06-04T03:29:54;2.65;;;2.40;;
5414;SDS011;2730;51.512;7.504;2023-06-04T03:32:20;3.35;;;2.90;;
5414;SDS011;2730;51.512;7.504;2023-06-04T03:34:47;4.80;;;2.25;;
5414;SDS011;2730;51.512;7.504;2023-06-04T03:37:14;3.25;;;2.10;;
5414;SDS011;2730;51.512;7.504;2023-06-04T03:39:40;4.60;;;3.00;;
5414;SDS011;2730;51.512;7.504;2023-06-04T03:42:09;5.13;;;2.30;;
5414;SDS011;2730;51.512;7.504;2023-06-04T03:44:35;3.70;;;2.53;;
5414;SDS011;2730;51.512;7.504;2023-06-04T03:47:02;3.88;;;2.15;;
5414;SDS011;2730;51.512;7.504;2023-06-04T03:49:29;7.30;;;2.50;;
5414;SDS011;2730;51.512;7.504;2023-06-04T03:51:56;5.00;;;2.70;;
5414;SDS011;2730;51.512;7.504;2023-06-04T03:54:22;11.90;;;3.20;;
5414;SDS011;2730;51.512;7.504;2023-06-04T03:56:49;8.88;;;2.60;;
5414;SDS011;2730;51.512;7.504;2023-06-04T03:59:17;3.90;;;2.60;;
5414;SDS011;2730;51.512;7.504;2023-06-04T04:01:44;2.53;;;2.20;;
5414;SDS011;2730;51.512;7.504;2023-06-04T04:04:11;4.00;;;2.67;;
5414;SDS011;2730;51.512;7.504;2023-06-04T04:06:37;3.17;;;2.30;;
5414;SDS011;2730;51.512;7.504;2023-06-04T04:09:05;4.75;;;2.45;;
5414;SDS011;2730;51.512;7.504;2023-06-04T04:11:31;3.58;;;2.03;;
5414;SDS011;2730;51.512;7.504;2023-06-04T04:13:58;3.00;;;2.25;;
5414;SDS011;2730;51.512;7.504;2023-06-04T04:16:27;2.55;;;2.35;;
5414;SDS011;2730;51.512;7.504;2023-06-04T04:18:53;3.33;;;2.72;;
5414;SDS011;2730;51.512;7.504;2023-06-04T04:21:20;2.67;;;2.13;;
5414;SDS011;2730;51.512;7.504;2023-06-04T04:23:48;2.38;;;2.17;;
5414;SDS011;2730;51.512;7.504;2023-06-04T04:26:15;2.40;;;2.20;;
5414;SDS011;2730;51.512;7.504;2023-06-04T04:28:42;3.33;;;2.38;;
5414;SDS011;2730;51.512;7.504;2023-06-04T04:31:09;2.47;;;2.30;;
5414;SDS011;2730;51.512;7.504;2023-06-04T04:33:38;6.70;;;2.28;;
5414;SDS011;2730;51.512;7.504;2023-06-04T04:36:05;2.00;;;1.90;;
5414;SDS011;2730;51.512;7.504;2023-06-04T04:38:37;2.47;;;2.00;;
5414;SDS011;2730;51.512;7.504;2023-06-04T04:41:05;3.00;;;2.10;;
5414;SDS011;2730;51.512;7.504;2023-06-04T04:43:33;2.92;;;2.33;;
5414;SDS011;2730;51.512;7.504;2023-06-04T04:46:01;2.80;;;2.35;;
5414;SDS011;2730;51.512;7.504;2023-06-04T04:48:27;4.72;;;2.17;;
5414;SDS011;2730;51.512;7.504;2023-06-04T04:50:56;3.78;;;2.45;;
5414;SDS011;2730;51.512;7.504;2023-06-04T04:53:23;3.17;;;2.42;;
5414;SDS011;2730;51.512;7.504;2023-06-04T04:55:50;2.80;;;2.40;;
5414;SDS011;2730;51.512;7.504;2023-06-04T04:58:17;2.38;;;2.17;;
5414;SDS011;2730;51.512;7.504;2023-06-04T05:00:43;2.53;;;2.33;;
5414;SDS011;2730;51.512;7.504;2023-06-04T05:03:10;3.97;;;2.50;;
5414;SDS011;2730;51.512;7.504;2023-06-04T05:05:37;2.97;;;2.15;;
5414;SDS011;2730;51.512;7.504;2023-06-04T05:08:05;2.88;;;2.55;;
5414;SDS011;2730;51.512;7.504;2023-06-04T05:10:32;2.40;;;2.20;;
5414;SDS011;2730;51.512;7.504;2023-06-04T05:13:01;2.40;;;2.20;;
5414;SDS011;2730;51.512;7.504;2023-06-04T05:15:29;4.80;;;2.22;;
5414;SDS011;2730;51.512;7.504;2023-06-04T05:17:56;2.95;;;2.20;;
5414;SDS011;2730;51.512;7.504;2023-06-04T05:20:25;5.35;;;2.00;;
5414;SDS011;2730;51.512;7.504;2023-06-04T05:22:52;2.40;;;2.20;;
5414;SDS011;2730;51.512;7.504;2023-06-04T05:25:21;2.00;;;1.80;;
5414;SDS011;2730;51.512;7.504;2023-06-04T05:27:48;1.98;;;1.88;;
5414;SDS011;2730;51.512;7.504;2023-06-04T05:30:18;3.20;;;2.38;;
5414;SDS011;2730;51.512;7.504;2023-06-04T05:32:44;3.08;;;2.40;;
5414;SDS011;2730;51.512;7.504;2023-06-04T05:35:11;9.85;;;2.38;;
5414;SDS011;2730;51.512;7.504;2023-06-04T05:37:38;2.65;;;2.20;;
5414;SDS011;2730;51.512;7.504;2023-06-04T05:40:07;3.15;;;2.20;;
5414;SDS011;2730;51.512;7.504;2023-06-04T05:42:36;3.05;;;2.03;;
5414;SDS011;2730;51.512;7.504;2023-06-04T05:45:04;4.03;;;2.00;;
5414;SDS011;2730;51.512;7.504;2023-06-04T05:47:33;4.13;;;2.63;;
5414;SDS011;2730;51.512;7.504;2023-06-04T05:49:59;1.90;;;1.80;;
5414;SDS011;2730;51.512;7.504;2023-06-04T05:52:26;3.30;;;2.67;;
5414;SDS011;2730;51.512;7.504;2023-06-04T05:54:53;2.73;;;2.53;;
5414;SDS011;2730;51.512;7.504;2023-06-04T05:57:20;2.77;;;2.57;;
5414;SDS011;2730;51.512;7.504;2023-06-04T05:59:48;2.80;;;2.00;;
5414;SDS011;2730;51.512;7.504;2023-06-04T06:02:15;2.33;;;2.13;;
5414;SDS011;2730;51.512;7.504;2023-06-04T06:04:42;2.77;;;2.33;;
5414;SDS011;2730;51.512;7.504;2023-06-04T06:07:08;9.60;;;2.30;;
5414;SDS011;2730;51.512;7.504;2023-06-04T06:09:35;5.60;;;2.73;;
5414;SDS011;2730;51.512;7.504;2023-06-04T06:12:02;3.70;;;2.60;;
5414;SDS011;2730;51.512;7.504;2023-06-04T06:14:30;2.63;;;2.27;;
5414;SDS011;2730;51.512;7.504;2023-06-04T06:16:58;3.43;;;2.40;;
5414;SDS011;2730;51.512;7.504;2023-06-04T06:19:28;6.37;;;2.90;;
5414;SDS011;2730;51.512;7.504;2023-06-04T06:21:54;9.80;;;2.80;;
5414;SDS011;2730;51.512;7.504;2023-06-04T06:24:23;2.80;;;2.23;;
5414;SDS011;2730;51.512;7.504;2023-06-04T06:26:50;2.40;;;2.20;;
5414;SDS011;2730;51.512;7.504;2023-06-04T06:29:17;2.07;;;1.87;;
5414;SDS011;2730;51.512;7.504;2023-06-04T06:31:43;2.00;;;1.90;;
5414;SDS011;2730;51.512;7.504;2023-06-04T06:34:11;2.50;;;2.00;;
5414;SDS011;2730;51.512;7.504;2023-06-04T06:36:38;2.73;;;2.43;;
5414;SDS011;2730;51.512;7.504;2023-06-04T06:39:05;4.70;;;2.43;;
5414;SDS011;2730;51.512;7.504;2023-06-04T06:41:32;2.73;;;2.53;;
5414;SDS011;2730;51.512;7.504;2023-06-04T06:43:59;3.03;;;2.37;;
5414;SDS011;2730;51.512;7.504;2023-06-04T06:46:25;2.40;;;2.20;;
5414;SDS011;2730;51.512;7.504;2023-06-04T06:48:52;2.10;;;2.00;;
5414;SDS011;2730;51.512;7.504;2023-06-04T06:51:20;2.83;;;2.50;;
5414;SDS011;2730;51.512;7.504;2023-06-04T06:56:15;3.20;;;2.67;;
5414;SDS011;2730;51.512;7.504;2023-06-04T06:58:43;4.60;;;2.40;;
5414;SDS011;2730;51.512;7.504;2023-06-04T07:01:10;2.00;;;1.90;;
5414;SDS011;2730;51.512;7.504;2023-06-04T07:03:37;1.93;;;1.83;;
5414;SDS011;2730;51.512;7.504;2023-06-04T07:06:04;2.43;;;2.20;;
5414;SDS011;2730;51.512;7.504;2023-06-04T07:08:33;2.47;;;2.27;;
5414;SDS011;2730;51.512;7.504;2023-06-04T07:11:01;2.13;;;1.97;;
5414;SDS011;2730;51.512;7.504;2023-06-04T07:13:29;2.40;;;2.30;;
5414;SDS011;2730;51.512;7.504;2023-06-04T07:15:57;5.33;;;2.20;;
5414;SDS011;2730;51.512;7.504;2023-06-04T07:18:24;2.93;;;2.33;;
5414;SDS011;2730;51.512;7.504;2023-06-04T07:20:50;2.07;;;1.73;;
5414;SDS011;2730;51.512;7.504;2023-06-04T07:23:17;3.37;;;2.27;;
5414;SDS011;2730;51.512;7.504;2023-06-04T07:25:45;2.80;;;2.37;;
5414;SDS011;2730;51.512;7.504;2023-06-04T07:28:12;2.27;;;2.13;;
5414;SDS011;2730;51.512;7.504;2023-06-04T07:30:40;4.53;;;2.53;;
5414;SDS011;2730;51.512;7.504;2023-06-04T07:33:06;3.17;;;2.10;;
5414;SDS011;2730;51.512;7.504;2023-06-04T07:35:33;7.13;;;2.20;;
5414;SDS011;2730;51.512;7.504;2023-06-04T07:38:00;7.40;;;2.60;;
5414;SDS011;2730;51.512;7.504;2023-06-04T07:40:27;2.80;;;1.80;;
5414;SDS011;2730;51.512;7.504;2023-06-04T07:42:55;2.30;;;2.10;;
5414;SDS011;2730;51.512;7.504;2023-06-04T07:45:22;2.00;;;1.90;;
5414;SDS011;2730;51.512;7.504;2023-06-04T07:47:48;2.30;;;2.10;;
5414;SDS011;2730;51.512;7.504;2023-06-04T07:50:15;2.03;;;1.93;;
5414;SDS011;2730;51.512;7.504;2023-06-04T07:52:42;3.17;;;2.23;;
5414;SDS011;2730;51.512;7.504;2023-06-04T07:55:09;2.53;;;1.90;;
5414;SDS011;2730;51.512;7.504;2023-06-04T07:57:36;2.20;;;2.00;;
5414;SDS011;2730;51.512;7.504;2023-06-04T08:00:04;2.30;;;2.07;;
5414;SDS011;2730;51.512;7.504;2023-06-04T08:02:33;6.00;;;2.10;;
5414;SDS011;2730;51.512;7.504;2023-06-04T08:05:00;2.23;;;1.87;;
5414;SDS011;2730;51.512;7.504;2023-06-04T08:07:27;2.37;;;2.17;;
5414;SDS011;2730;51.512;7.504;2023-06-04T08:09:55;3.33;;;2.03;;
5414;SDS011;2730;51.512;7.504;2023-06-04T08:12:21;3.97;;;1.70;;
5414;SDS011;2730;51.512;7.504;2023-06-04T08:14:48;2.23;;;1.97;;
5414;SDS011;2730;51.512;7.504;2023-06-04T08:17:17;2.13;;;1.80;;
5414;SDS011;2730;51.512;7.504;2023-06-04T08:19:44;2.57;;;2.27;;
5414;SDS011;2730;51.512;7.504;2023-06-04T08:22:11;2.73;;;2.53;;
5414;SDS011;2730;51.512;7.504;2023-06-04T08:24:37;2.20;;;2.10;;
5414;SDS011;2730;51.512;7.504;2023-06-04T08:27:04;2.60;;;2.43;;
5414;SDS011;2730;51.512;7.504;2023-06-04T08:29:33;6.20;;;3.00;;
5414;SDS011;2730;51.512;7.504;2023-06-04T08:32:00;4.50;;;2.80;;
5414;SDS011;2730;51.512;7.504;2023-06-04T08:34:28;2.20;;;2.10;;
5414;SDS011;2730;51.512;7.504;2023-06-04T08:36:55;2.40;;;2.30;;
5414;SDS011;2730;51.512;7.504;2023-06-04T08:39:22;4.83;;;2.40;;
5414;SDS011;2730;51.512;7.504;2023-06-04T08:41:51;3.07;;;2.40;;
5414;SDS011;2730;51.512;7.504;2023-06-04T08:44:19;3.10;;;2.33;;
5414;SDS011;2730;51.512;7.504;2023-06-04T08:46:47;4.67;;;2.50;;
5414;SDS011;2730;51.512;7.504;2023-06-04T08:49:18;2.20;;;2.00;;
5414;SDS011;2730;51.512;7.504;2023-06-04T08:51:47;6.60;;;2.40;;
5414;SDS011;2730;51.512;7.504;2023-06-04T08:54:14;2.80;;;2.60;;
5414;SDS011;2730;51.512;7.504;2023-06-04T08:56:41;2.67;;;2.53;;
5414;SDS011;2730;51.512;7.504;2023-06-04T08:59:10;3.50;;;2.37;;
5414;SDS011;2730;51.512;7.504;2023-06-04T09:01:38;3.13;;;2.30;;
5414;SDS011;2730;51.512;7.504;2023-06-04T09:04:09;3.07;;;2.77;;
5414;SDS011;2730;51.512;7.504;2023-06-04T09:06:36;2.87;;;2.67;;
5414;SDS011;2730;51.512;7.504;2023-06-04T09:09:08;3.17;;;2.87;;
5414;SDS011;2730;51.512;7.504;2023-06-04T09:11:38;3.30;;;3.00;;
5414;SDS011;2730;51.512;7.504;2023-06-04T09:14:08;4.50;;;2.50;;
5414;SDS011;2730;51.512;7.504;2023-06-04T09:16:45;3.20;;;3.00;;
5414;SDS011;2730;51.512;7.504;2023-06-04T09:19:13;4.13;;;3.60;;
5414;SDS011;2730;51.512;7.504;2023-06-04T09:21:47;3.40;;;3.07;;
5414;SDS011;2730;51.512;7.504;2023-06-04T09:24:18;3.67;;;3.30;;
5414;SDS011;2730;51.512;7.504;2023-06-04T09:26:46;3.80;;;3.40;;
5414;SDS011;2730;51.512;7.504;2023-06-04T09:29:13;3.80;;;3.47;;
5414;SDS011;2730;51.512;7.504;2023-06-04T09:31:41;4.00;;;3.53;;
5414;SDS011;2730;51.512;7.504;2023-06-04T09:34:10;4.20;;;3.80;;
5414;SDS011;2730;51.512;7.504;2023-06-04T09:36:36;4.03;;;3.73;;
5414;SDS011;2730;51.512;7.504;2023-06-04T09:39:04;3.97;;;3.10;;
5414;SDS011;2730;51.512;7.504;2023-06-04T09:41:42;6.83;;;3.10;;
5414;SDS011;2730;51.512;7.504;2023-06-04T09:44:09;3.70;;;3.40;;
5414;SDS011;2730;51.512;7.504;2023-06-04T09:46:37;5.50;;;3.50;;
5414;SDS011;2730;51.512;7.504;2023-06-04T09:49:04;3.53;;;3.20;;
5414;SDS011;2730;51.512;7.504;2023-06-04T09:51:31;2.70;;;2.50;;
5414;SDS011;2730;51.512;7.504;2023-06-04T09:53:59;2.97;;;2.77;;
5414;SDS011;2730;51.512;7.504;2023-06-04T09:56:27;5.13;;;3.43;;
5414;SDS011;2730;51.512;7.504;2023-06-04T09:58:56;2.57;;;2.47;;
5414;SDS011;2730;51.512;7.504;2023-06-04T10:01:26;4.90;;;2.87;;
5414;SDS011;2730;51.512;7.504;2023-06-04T10:03:54;4.50;;;2.43;;
5414;SDS011;2730;51.512;7.504;2023-06-04T10:06:22;2.63;;;2.53;;
5414;SDS011;2730;51.512;7.504;2023-06-04T10:08:50;4.03;;;2.77;;
5414;SDS011;2730;51.512;7.504;2023-06-04T10:11:17;3.03;;;2.83;;
5414;SDS011;2730;51.512;7.504;2023-06-04T10:13:48;3.40;;;3.10;;
5414;SDS011;2730;51.512;7.504;2023-06-04T10:16:21;4.17;;;2.77;;
5414;SDS011;2730;51.512;7.504;2023-06-04T10:18:52;2.27;;;2.17;;
5414;SDS011;2730;51.512;7.504;2023-06-04T10:21:20;2.67;;;2.47;;
5414;SDS011;2730;51.512;7.504;2023-06-04T10:23:48;2.80;;;2.53;;
5414;SDS011;2730;51.512;7.504;2023-06-04T10:26:16;2.57;;;2.37;;
5414;SDS011;2730;51.512;7.504;2023-06-04T10:28:44;6.73;;;2.60;;
5414;SDS011;2730;51.512;7.504;2023-06-04T10:31:11;6.20;;;2.40;;
5414;SDS011;2730;51.512;7.504;2023-06-04T10:33:39;1.93;;;1.83;;
5414;SDS011;2730;51.512;7.504;2023-06-04T10:36:16;5.50;;;2.23;;
5414;SDS011;2730;51.512;7.504;2023-06-04T10:38:47;3.63;;;2.37;;
5414;SDS011;2730;51.512;7.504;2023-06-04T10:41:14;3.03;;;2.20;;
5414;SDS011;2730;51.512;7.504;2023-06-04T10:43:41;4.03;;;2.37;;
5414;SDS011;2730;51.512;7.504;2023-06-04T10:46:11;2.70;;;1.90;;
5414;SDS011;2730;51.512;7.504;2023-06-04T10:48:51;5.07;;;2.00;;
5414;SDS011;2730;51.512;7.504;2023-06-04T10:51:28;2.50;;;2.17;;
5414;SDS011;2730;51.512;7.504;2023-06-04T10:53:57;2.10;;;1.90;;
5414;SDS011;2730;51.512;7.504;2023-06-04T10:56:24;2.33;;;1.80;;
5414;SDS011;2730;51.512;7.504;2023-06-04T10:58:52;3.10;;;2.30;;
5414;SDS011;2730;51.512;7.504;2023-06-04T11:01:22;2.07;;;1.87;;
5414;SDS011;2730;51.512;7.504;2023-06-04T11:03:52;1.93;;;1.83;;
5414;SDS011;2730;51.512;7.504;2023-06-04T11:06:18;3.37;;;1.77;;
5414;SDS011;2730;51.512;7.504;2023-06-04T11:08:46;2.00;;;1.90;;
5414;SDS011;2730;51.512;7.504;2023-06-04T11:11:13;2.60;;;2.07;;
5414;SDS011;2730;51.512;7.504;2023-06-04T11:13:41;1.70;;;1.60;;
5414;SDS011;2730;51.512;7.504;2023-06-04T11:16:15;3.93;;;1.97;;
5414;SDS011;2730;51.512;7.504;2023-06-04T11:18:43;2.70;;;1.87;;
5414;SDS011;2730;51.512;7.504;2023-06-04T11:21:11;3.20;;;2.17;;
5414;SDS011;2730;51.512;7.504;2023-06-04T11:23:39;1.80;;;1.70;;
5414;SDS011;2730;51.512;7.504;2023-06-04T11:26:07;2.40;;;2.13;;
5414;SDS011;2730;51.512;7.504;2023-06-04T11:28:34;2.10;;;1.83;;
5414;SDS011;2730;51.512;7.504;2023-06-04T11:31:01;2.33;;;1.80;;
5414;SDS011;2730;51.512;7.504;2023-06-04T11:33:30;2.83;;;2.07;;
5414;SDS011;2730;51.512;7.504;2023-06-04T11:36:07;1.40;;;1.30;;
5414;SDS011;2730;51.512;7.504;2023-06-04T11:38:35;2.30;;;2.10;;
5414;SDS011;2730;51.512;7.504;2023-06-04T11:41:02;3.47;;;1.93;;
5414;SDS011;2730;51.512;7.504;2023-06-04T11:43:31;2.00;;;1.90;;
5414;SDS011;2730;51.512;7.504;2023-06-04T11:45:58;2.50;;;1.80;;
5414;SDS011;2730;51.512;7.504;2023-06-04T11:48:25;2.40;;;1.60;;
5414;SDS011;2730;51.512;7.504;2023-06-04T11:50:52;3.20;;;2.00;;
5414;SDS011;2730;51.512;7.504;2023-06-04T11:53:20;1.90;;;1.67;;
5414;SDS011;2730;51.512;7.504;2023-06-04T11:55:48;1.80;;;1.70;;
5414;SDS011;2730;51.512;7.504;2023-06-04T11:58:15;3.27;;;1.33;;
5414;SDS011;2730;51.512;7.504;2023-06-04T12:00:42;6.13;;;2.33;;
5414;SDS011;2730;51.512;7.504;2023-06-04T12:03:09;7.73;;;1.97;;
5414;SDS011;2730;51.512;7.504;2023-06-04T12:05:36;5.13;;;1.80;;
5414;SDS011;2730;51.512;7.504;2023-06-04T12:08:05;3.90;;;1.67;;
5414;SDS011;2730;51.512;7.504;2023-06-04T12:10:37;1.90;;;1.80;;
5414;SDS011;2730;51.512;7.504;2023-06-04T12:13:06;4.60;;;1.70;;
5414;SDS011;2730;51.512;7.504;2023-06-04T12:15:32;4.70;;;1.67;;
5414;SDS011;2730;51.512;7.504;2023-06-04T12:17:59;1.60;;;1.50;;
5414;SDS011;2730;51.512;7.504;2023-06-04T12:20:32;1.70;;;1.60;;
5414;SDS011;2730;51.512;7.504;2023-06-04T12:23:00;2.27;;;1.40;;
5414;SDS011;2730;51.512;7.504;2023-06-04T12:25:27;8.80;;;1.80;;
5414;SDS011;2730;51.512;7.504;2023-06-04T12:27:55;4.00;;;1.60;;
5414;SDS011;2730;51.512;7.504;2023-06-04T12:30:31;1.43;;;1.33;;
5414;SDS011;2730;51.512;7.504;2023-06-04T12:33:01;2.33;;;1.57;;
5414;SDS011;2730;51.512;7.504;2023-06-04T12:35:28;1.60;;;1.50;;
5414;SDS011;2730;51.512;7.504;2023-06-04T12:37:55;11.00;;;1.87;;
5414;SDS011;2730;51.512;7.504;2023-06-04T12:40:21;3.63;;;1.90;;
5414;SDS011;2730;51.512;7.504;2023-06-04T12:42:49;3.63;;;1.50;;
5414;SDS011;2730;51.512;7.504;2023-06-04T12:45:16;2.43;;;1.70;;
5414;SDS011;2730;51.512;7.504;2023-06-04T12:47:45;2.30;;;1.57;;
5414;SDS011;2730;51.512;7.504;2023-06-04T12:50:12;2.50;;;1.60;;
5414;SDS011;2730;51.512;7.504;2023-06-04T12:52:39;2.90;;;1.50;;
5414;SDS011;2730;51.512;7.504;2023-06-04T12:55:06;1.80;;;1.70;;
5414;SDS011;2730;51.512;7.504;2023-06-04T12:57:34;4.00;;;1.70;;
5414;SDS011;2730;51.512;7.504;2023-06-04T13:00:01;2.80;;;1.33;;
5414;SDS011;2730;51.512;7.504;2023-06-04T13:02:29;1.67;;;1.57;;
5414;SDS011;2730;51.512;7.504;2023-06-04T13:04:57;1.90;;;1.53;;
5414;SDS011;2730;51.512;7.504;2023-06-04T13:07:23;2.60;;;1.60;;
5414;SDS011;2730;51.512;7.504;2023-06-04T13:09:50;2.20;;;1.83;;
5414;SDS011;2730;51.512;7.504;2023-06-04T13:12:17;3.53;;;1.60;;
5414;SDS011;2730;51.512;7.504;2023-06-04T13:14:44;8.80;;;2.00;;
5414;SDS011;2730;51.512;7.504;2023-06-04T13:17:11;1.87;;;1.50;;
5414;SDS011;2730;51.512;7.504;2023-06-04T13:19:38;2.93;;;2.00;;
5414;SDS011;2730;51.512;7.504;2023-06-04T13:22:06;1.93;;;1.50;;
5414;SDS011;2730;51.512;7.504;2023-06-04T13:24:34;1.93;;;1.80;;
5414;SDS011;2730;51.512;7.504;2023-06-04T13:27:01;6.07;;;1.80;;
5414;SDS011;2730;51.512;7.504;2023-06-04T13:29:27;3.30;;;1.70;;
5414;SDS011;2730;51.512;7.504;2023-06-04T13:31:58;1.67;;;1.57;;
5414;SDS011;2730;51.512;7.504;2023-06-04T13:34:25;1.33;;;1.23;;
5414;SDS011;2730;51.512;7.504;2023-06-04T13:36:52;2.50;;;1.60;;
5414;SDS011;2730;51.512;7.504;2023-06-04T13:39:20;2.07;;;1.37;;
5414;SDS011;2730;51.512;7.504;2023-06-04T13:41:47;1.50;;;1.40;;
5414;SDS011;2730;51.512;7.504;2023-06-04T13:44:14;2.17;;;1.70;;
5414;SDS011;2730;51.512;7.504;2023-06-04T13:46:40;3.23;;;1.77;;
5414;SDS011;2730;51.512;7.504;2023-06-04T13:49:07;2.53;;;2.07;;
5414;SDS011;2730;51.512;7.504;2023-06-04T13:51:34;1.97;;;1.87;;
5414;SDS011;2730;51.512;7.504;2023-06-04T13:54:01;3.00;;;1.70;;
5414;SDS011;2730;51.512;7.504;2023-06-04T13:56:29;2.27;;;1.80;;
5414;SDS011;2730;51.512;7.504;2023-06-04T13:58:56;2.13;;;1.93;;
5414;SDS011;2730;51.512;7.504;2023-06-04T14:01:23;4.03;;;2.43;;
5414;SDS011;2730;51.512;7.504;2023-06-04T14:03:49;3.20;;;2.30;;
5414;SDS011;2730;51.512;7.504;2023-06-04T14:06:17;3.70;;;1.97;;
5414;SDS011;2730;51.512;7.504;2023-06-04T14:08:43;4.20;;;1.97;;
5414;SDS011;2730;51.512;7.504;2023-06-04T14:11:10;1.70;;;1.60;;
5414;SDS011;2730;51.512;7.504;2023-06-04T14:13:38;3.50;;;1.60;;
5414;SDS011;2730;51.512;7.504;2023-06-04T14:16:06;2.07;;;1.90;;
5414;SDS011;2730;51.512;7.504;2023-06-04T14:18:33;1.67;;;1.57;;
5414;SDS011;2730;51.512;7.504;2023-06-04T14:20:59;1.60;;;1.50;;
5414;SDS011;2730;51.512;7.504;2023-06-04T14:23:26;2.00;;;1.80;;
5414;SDS011;2730;51.512;7.504;2023-06-04T14:25:53;2.50;;;1.60;;
5414;SDS011;2730;51.512;7.504;2023-06-04T14:28:20;12.70;;;2.80;;
5414;SDS011;2730;51.512;7.504;2023-06-04T14:30:48;3.37;;;1.70;;
5414;SDS011;2730;51.512;7.504;2023-06-04T14:33:15;1.80;;;1.70;;
5414;SDS011;2730;51.512;7.504;2023-06-04T14:35:42;2.03;;;1.90;;
5414;SDS011;2730;51.512;7.504;2023-06-04T14:38:11;3.27;;;2.10;;
5414;SDS011;2730;51.512;7.504;2023-06-04T14:40:38;2.07;;;1.97;;
5414;SDS011;2730;51.512;7.504;2023-06-04T14:43:06;2.90;;;2.10;;
5414;SDS011;2730;51.512;7.504;2023-06-04T14:45:33;2.53;;;2.33;;
5414;SDS011;2730;51.512;7.504;2023-06-04T14:48:01;3.43;;;2.20;;
5414;SDS011;2730;51.512;7.504;2023-06-04T14:50:28;2.50;;;2.20;;
5414;SDS011;2730;51.512;7.504;2023-06-04T14:52:55;2.33;;;2.13;;
5414;SDS011;2730;51.512;7.504;2023-06-04T14:55:21;2.43;;;2.30;;
5414;SDS011;2730;51.512;7.504;2023-06-04T14:57:49;2.00;;;1.90;;
5414;SDS011;2730;51.512;7.504;2023-06-04T15:00:16;6.53;;;2.60;;
5414;SDS011;2730;51.512;7.504;2023-06-04T15:02:43;2.50;;;2.30;;
5414;SDS011;2730;51.512;7.504;2023-06-04T15:05:11;2.40;;;2.20;;
5414;SDS011;2730;51.512;7.504;2023-06-04T15:07:37;2.90;;;2.40;;
5414;SDS011;2730;51.512;7.504;2023-06-04T15:10:05;5.13;;;2.37;;
5414;SDS011;2730;51.512;7.504;2023-06-04T15:12:33;2.70;;;2.30;;
5414;SDS011;2730;51.512;7.504;2023-06-04T15:15:01;2.63;;;2.33;;
5414;SDS011;2730;51.512;7.504;2023-06-04T15:17:28;3.43;;;2.27;;
5414;SDS011;2730;51.512;7.504;2023-06-04T15:19:55;2.43;;;2.23;;
5414;SDS011;2730;51.512;7.504;2023-06-04T15:22:23;2.93;;;2.20;;